createdAt,value
2022-10-22T00:01:46.565Z,98933.00
2022-10-22T00:04:20.652Z,98933.00
2022-10-22T00:06:53.642Z,98934.00
2022-10-22T00:09:26.684Z,98937.00
2022-10-22T00:11:53.574Z,98937.00
2022-10-22T00:14:20.516Z,98933.00
2022-10-22T00:16:53.675Z,98925.00
2022-10-22T00:19:26.655Z,98903.00
2022-10-22T00:21:59.634Z,98894.00
2022-10-22T00:24:26.965Z,98897.00
2022-10-22T00:27:00.662Z,98892.00
2022-10-22T00:29:27.623Z,98909.00
2022-10-22T00:34:28.625Z,98909.00
2022-10-22T00:37:02.669Z,98918.00
2022-10-22T00:39:35.661Z,98919.00
2022-10-22T00:42:08.699Z,98919.00
2022-10-22T00:45:33.692Z,98904.00
2022-10-22T00:48:33.673Z,98886.00
2022-10-22T00:51:04.443Z,98912.00
2022-10-22T00:53:51.697Z,98907.00
2022-10-22T00:56:18.688Z,98900.00
2022-10-22T00:58:58.737Z,98885.00
2022-10-22T01:01:28.909Z,98880.00
2022-10-22T01:04:02.867Z,98890.00
2022-10-22T01:06:31.973Z,98911.00
2022-10-22T01:09:24.773Z,98907.00
2022-10-22T01:12:03.019Z,98918.00
2022-10-22T01:15:09.752Z,98909.00
2022-10-22T01:18:04.434Z,98892.00
2022-10-22T01:21:06.722Z,98893.00
2022-10-22T01:23:57.899Z,98897.00
2022-10-22T01:26:52.713Z,98907.00
2022-10-22T01:29:24.710Z,98893.00
2022-10-22T01:32:37.737Z,98893.00
2022-10-22T01:35:09.668Z,98895.00
2022-10-22T01:37:55.769Z,98899.00
2022-10-22T01:40:29.816Z,98893.00
2022-10-22T01:43:06.699Z,98892.00
2022-10-22T01:45:45.145Z,98869.00
2022-10-22T01:48:33.783Z,98886.00
2022-10-22T01:51:10.762Z,98873.00
2022-10-22T01:53:56.198Z,98880.00
2022-10-22T01:56:39.762Z,98862.00
2022-10-22T01:59:48.716Z,98857.00
2022-10-22T02:03:21.260Z,98861.00
2022-10-22T02:05:57.397Z,98848.00
2022-10-22T02:08:35.880Z,98861.00
2022-10-22T02:11:03.012Z,98854.00
2022-10-22T02:13:47.765Z,98855.00
2022-10-22T02:16:21.897Z,98858.00
2022-10-22T02:18:57.775Z,98859.00
2022-10-22T02:21:31.823Z,98842.00
2022-10-22T02:23:58.791Z,98832.00
2022-10-22T02:27:00.797Z,98842.00
2022-10-22T02:29:36.912Z,98847.00
2022-10-22T02:32:10.806Z,98856.00
2022-10-22T02:34:38.020Z,98858.00
2022-10-22T02:37:11.802Z,98845.00
2022-10-22T02:39:38.730Z,98845.00
2022-10-22T02:42:12.782Z,98844.00
2022-10-22T02:44:39.755Z,98845.00
2022-10-22T02:47:12.788Z,98845.00
2022-10-22T02:49:39.762Z,98843.00
2022-10-22T02:52:12.804Z,98835.00
2022-10-22T02:54:39.849Z,98842.00
2022-10-22T02:57:13.873Z,98839.00
2022-10-22T02:59:40.876Z,98839.00
2022-10-22T03:02:14.829Z,98844.00
2022-10-22T03:04:41.814Z,98841.00
2022-10-22T03:07:15.792Z,98847.00
2022-10-22T03:09:42.785Z,98829.00
2022-10-22T03:12:09.717Z,98827.00
2022-10-22T03:14:42.816Z,98826.00
2022-10-22T03:17:10.023Z,98835.00
2022-10-22T03:19:43.822Z,98840.00
2022-10-22T03:22:15.002Z,98841.00
2022-10-22T03:24:50.802Z,98844.00
2022-10-22T03:27:24.863Z,98848.00
2022-10-22T03:29:52.050Z,98849.00
2022-10-22T03:32:25.815Z,98843.00
2022-10-22T03:37:32.837Z,98834.00
2022-10-22T03:40:06.790Z,98824.00
2022-10-22T03:42:40.840Z,98825.00
2022-10-22T03:45:08.594Z,98845.00
2022-10-22T03:47:48.870Z,98858.00
2022-10-22T03:50:15.974Z,98848.00
2022-10-22T03:52:49.863Z,98855.00
2022-10-22T03:55:16.933Z,98843.00
2022-10-22T03:57:43.995Z,98844.00
2022-10-22T04:00:17.804Z,98854.00
2022-10-22T04:02:44.762Z,98863.00
2022-10-22T04:05:17.850Z,98863.00
2022-10-22T04:07:44.977Z,98853.00
2022-10-22T04:10:18.822Z,98861.00
2022-10-22T04:12:48.454Z,98870.00
2022-10-22T04:15:21.868Z,98880.00
2022-10-22T04:17:48.915Z,98884.00
2022-10-22T04:20:22.878Z,98887.00
2022-10-22T04:22:49.921Z,98883.00
2022-10-22T04:25:23.872Z,98884.00
2022-10-22T04:27:50.977Z,98885.00
2022-10-22T04:30:24.916Z,98887.00
2022-10-22T04:32:51.947Z,98877.00
2022-10-22T04:37:52.742Z,98891.00
2022-10-22T04:40:19.867Z,98896.00
2022-10-22T04:42:53.935Z,98899.00
2022-10-22T04:45:21.000Z,98911.00
2022-10-22T04:48:00.907Z,98905.00
2022-10-22T04:50:27.940Z,98913.00
2022-10-22T04:53:01.937Z,98916.00
2022-10-22T04:55:35.929Z,98927.00
2022-10-22T04:58:03.061Z,98931.00
2022-10-22T05:00:36.935Z,98914.00
2022-10-22T05:03:10.867Z,98926.00
2022-10-22T05:05:37.870Z,98926.00
2022-10-22T05:08:11.968Z,98912.00
2022-10-22T05:10:39.010Z,98920.00
2022-10-22T05:13:12.889Z,98927.00
2022-10-22T05:15:45.844Z,98921.00
2022-10-22T05:18:12.918Z,98917.00
2022-10-22T05:20:47.861Z,98924.00
2022-10-22T05:23:15.050Z,98913.00
2022-10-22T05:25:48.865Z,98910.00
2022-10-22T05:28:15.883Z,98913.00
2022-10-22T05:30:48.931Z,98919.00
2022-10-22T05:33:15.895Z,98912.00
2022-10-22T05:35:46.679Z,98916.00
2022-10-22T05:38:20.890Z,98909.00
2022-10-22T05:40:47.935Z,98911.00
2022-10-22T05:43:21.896Z,98912.00
2022-10-22T05:45:48.859Z,98920.00
2022-10-22T05:48:21.962Z,98922.00
2022-10-22T05:50:49.025Z,98929.00
2022-10-22T05:53:22.900Z,98925.00
2022-10-22T05:55:49.957Z,98923.00
2022-10-22T05:58:23.860Z,98922.00
2022-10-22T06:00:50.916Z,98932.00
2022-10-22T06:03:17.848Z,98934.00
2022-10-22T06:05:50.877Z,98929.00
2022-10-22T06:08:19.052Z,98941.00
2022-10-22T06:10:52.890Z,98925.00
2022-10-22T06:13:19.930Z,98931.00
2022-10-22T06:15:52.895Z,98938.00
2022-10-22T06:18:20.140Z,98937.00
2022-10-22T06:20:53.900Z,98947.00
2022-10-22T06:23:26.918Z,98941.00
2022-10-22T06:25:58.356Z,98956.00
2022-10-22T06:28:31.898Z,98967.00
2022-10-22T06:31:00.019Z,98967.00
2022-10-22T06:33:34.925Z,98968.00
2022-10-22T06:36:13.632Z,98981.00
2022-10-22T06:38:46.992Z,98981.00
2022-10-22T06:41:15.846Z,98991.00
2022-10-22T06:43:50.915Z,98995.00
2022-10-22T06:46:21.240Z,99009.00
2022-10-22T06:49:02.924Z,99008.00
2022-10-22T06:51:30.026Z,99002.00
2022-10-22T06:54:03.946Z,98995.00
2022-10-22T06:56:30.938Z,99010.00
2022-10-22T06:59:04.898Z,99013.00
2022-10-22T07:01:33.824Z,99021.00
2022-10-22T07:04:07.924Z,99014.00
2022-10-22T07:06:34.905Z,99018.00
2022-10-22T07:09:01.920Z,99017.00
2022-10-22T07:11:43.900Z,99023.00
2022-10-22T07:14:11.328Z,99031.00
2022-10-22T07:16:38.352Z,99019.00
2022-10-22T07:19:11.934Z,99026.00
2022-10-22T07:21:38.919Z,99013.00
2022-10-22T07:24:12.921Z,99031.00
2022-10-22T07:26:40.032Z,99038.00
2022-10-22T07:29:13.970Z,99032.00
2022-10-22T07:31:41.616Z,99032.00
2022-10-22T07:34:15.004Z,99057.00
2022-10-22T07:36:42.036Z,99072.00
2022-10-22T07:39:15.972Z,99039.00
2022-10-22T07:41:43.003Z,99061.00
2022-10-22T07:44:10.064Z,99055.00
2022-10-22T07:46:47.972Z,99055.00
2022-10-22T07:49:15.943Z,99064.00
2022-10-22T07:51:50.027Z,99056.00
2022-10-22T07:54:17.064Z,99077.00
2022-10-22T07:56:50.997Z,99066.00
2022-10-22T07:59:18.134Z,99088.00
2022-10-22T08:01:45.225Z,99089.00
2022-10-22T08:04:18.987Z,99105.00
2022-10-22T08:06:47.367Z,99069.00
2022-10-22T08:09:21.984Z,99089.00
2022-10-22T08:11:49.072Z,99093.00
2022-10-22T08:14:23.000Z,99112.00
2022-10-22T08:16:50.020Z,99109.00
2022-10-22T08:19:24.048Z,99145.00
2022-10-22T08:21:51.008Z,99141.00
2022-10-22T08:24:24.987Z,99130.00
2022-10-22T08:26:57.995Z,99128.00
2022-10-22T08:29:25.759Z,99143.00
2022-10-22T08:32:00.062Z,99127.00
2022-10-22T08:34:27.110Z,99132.00
2022-10-22T08:37:00.978Z,99126.00
2022-10-22T08:39:28.084Z,99130.00
2022-10-22T08:42:46.056Z,99138.00
2022-10-22T08:45:13.790Z,99119.00
2022-10-22T08:48:08.147Z,99135.00
2022-10-22T08:50:49.966Z,99146.00
2022-10-22T08:53:30.024Z,99147.00
2022-10-22T08:56:04.106Z,99146.00
2022-10-22T08:58:56.997Z,99124.00
2022-10-22T09:01:48.057Z,99141.00
2022-10-22T09:04:47.012Z,99137.00
2022-10-22T09:07:20.022Z,99133.00
2022-10-22T09:09:49.925Z,99140.00
2022-10-22T09:12:24.002Z,99139.00
2022-10-22T09:14:51.240Z,99126.00
2022-10-22T09:17:40.426Z,99125.00
2022-10-22T09:20:31.962Z,99142.00
2022-10-22T09:23:30.003Z,99157.00
2022-10-22T09:25:57.300Z,99150.00
2022-10-22T09:28:24.315Z,99158.00
2022-10-22T09:33:26.897Z,99158.00
2022-10-22T09:36:08.041Z,99140.00
2022-10-22T09:38:46.453Z,99153.00
2022-10-22T09:41:20.049Z,99151.00
2022-10-22T09:43:54.060Z,99155.00
2022-10-22T09:46:36.079Z,99165.00
2022-10-22T09:49:11.305Z,99155.00
2022-10-22T10:03:10.330Z,99142.00
2022-10-22T10:05:44.624Z,99164.00
2022-10-22T10:08:22.062Z,99149.00
2022-10-22T10:10:51.587Z,99141.00
2022-10-22T10:13:36.989Z,99136.00
2022-10-22T10:16:24.112Z,99146.00
2022-10-22T10:19:27.025Z,99153.00
2022-10-22T10:22:27.683Z,99165.00
2022-10-22T10:25:32.989Z,99167.00
2022-10-22T10:27:59.822Z,99176.00
2022-10-22T10:30:33.017Z,99184.00
2022-10-22T10:33:05.886Z,99183.00
2022-10-22T10:36:03.035Z,99182.00
2022-10-22T10:38:51.325Z,99185.00
2022-10-22T10:41:27.067Z,99172.00
2022-10-22T10:44:38.128Z,99175.00
2022-10-22T10:47:56.044Z,99178.00
2022-10-22T10:50:59.028Z,99150.00
2022-10-22T10:54:01.075Z,99164.00
2022-10-22T10:57:19.062Z,99175.00
2022-10-22T11:00:07.519Z,99170.00
2022-10-22T11:03:12.055Z,99167.00
2022-10-22T11:05:56.863Z,99155.00
2022-10-22T11:08:40.198Z,99147.00
2022-10-22T11:11:26.460Z,99152.00
2022-10-22T11:14:17.094Z,99156.00
2022-10-22T11:16:48.615Z,99148.00
2022-10-22T11:19:51.518Z,99138.00
2022-10-22T11:22:27.034Z,99142.00
2022-10-22T11:25:20.079Z,99147.00
2022-10-22T11:28:11.424Z,99142.00
2022-10-22T11:30:45.028Z,99136.00
2022-10-22T11:33:17.275Z,99139.00
2022-10-22T11:35:52.075Z,99144.00
2022-10-22T11:38:24.135Z,99147.00
2022-10-22T11:41:14.078Z,99149.00
2022-10-22T11:44:08.845Z,99147.00
2022-10-22T11:46:52.135Z,99133.00
2022-10-22T11:49:23.962Z,99140.00
2022-10-22T11:51:57.125Z,99141.00
2022-10-22T11:54:41.156Z,99130.00
2022-10-22T11:57:54.151Z,99132.00
2022-10-22T12:00:35.765Z,99132.00
2022-10-22T12:03:30.129Z,99128.00
2022-10-22T12:06:16.095Z,99122.00
2022-10-22T12:08:49.776Z,99124.00
2022-10-22T12:11:55.133Z,99121.00
2022-10-22T12:14:33.117Z,99118.00
2022-10-22T12:17:14.169Z,99112.00
2022-10-22T12:19:58.518Z,99113.00
2022-10-22T12:22:39.272Z,99113.00
2022-10-22T12:25:47.799Z,99106.00
2022-10-22T12:28:21.140Z,99090.00
2022-10-22T12:30:48.093Z,99100.00
2022-10-22T12:33:35.458Z,99096.00
2022-10-22T12:36:02.398Z,99091.00
2022-10-22T12:38:36.147Z,99093.00
2022-10-22T12:41:03.184Z,99098.00
2022-10-22T12:43:37.091Z,99105.00
2022-10-22T12:46:04.211Z,99092.00
2022-10-22T12:48:33.055Z,99100.00
2022-10-22T12:51:08.184Z,99099.00
2022-10-22T12:53:43.344Z,99098.00
2022-10-22T12:56:27.147Z,99097.00
2022-10-22T12:59:22.355Z,99095.00
2022-10-22T13:01:58.864Z,99094.00
2022-10-22T13:04:43.158Z,99102.00
2022-10-22T13:07:15.943Z,99090.00
2022-10-22T13:09:54.156Z,99093.00
2022-10-22T13:12:28.484Z,99088.00
2022-10-22T13:15:02.225Z,99087.00
2022-10-22T13:17:41.133Z,99091.00
2022-10-22T13:20:28.197Z,99093.00
2022-10-22T13:23:05.226Z,99101.00
2022-10-22T13:25:45.154Z,99107.00
2022-10-22T13:28:19.852Z,99100.00
2022-10-22T13:31:24.215Z,99097.00
2022-10-22T13:33:56.892Z,99097.00
2022-10-22T13:36:30.147Z,99101.00
2022-10-22T13:39:03.167Z,99103.00
2022-10-22T13:41:31.170Z,99097.00
2022-10-22T13:44:05.175Z,99097.00
2022-10-22T13:46:32.098Z,99097.00
2022-10-22T13:49:05.147Z,99088.00
2022-10-22T13:51:34.517Z,99097.00
2022-10-22T13:54:08.191Z,99089.00
2022-10-22T13:56:35.191Z,99088.00
2022-10-22T13:59:02.202Z,99088.00
2022-10-22T14:01:36.187Z,99090.00
2022-10-22T14:04:04.601Z,99094.00
2022-10-22T14:06:39.173Z,99092.00
2022-10-22T14:09:14.316Z,99097.00
2022-10-22T14:11:48.173Z,99095.00
2022-10-22T14:14:15.118Z,99092.00
2022-10-22T14:16:42.260Z,99100.00
2022-10-22T14:19:23.187Z,99085.00
2022-10-22T14:21:57.372Z,99103.00
2022-10-22T14:24:24.375Z,99105.00
2022-10-22T14:27:07.236Z,99106.00
2022-10-22T14:29:34.247Z,99110.00
2022-10-22T14:32:01.218Z,99105.00
2022-10-22T14:34:34.200Z,99123.00
2022-10-22T14:37:01.180Z,99118.00
2022-10-22T14:39:34.215Z,99125.00
2022-10-22T14:42:01.125Z,99120.00
2022-10-22T14:44:37.229Z,99120.00
2022-10-22T14:47:13.415Z,99103.00
2022-10-22T14:49:47.263Z,99125.00
2022-10-22T14:52:15.045Z,99127.00
2022-10-22T14:54:42.146Z,99126.00
2022-10-22T14:57:16.218Z,99134.00
2022-10-22T14:59:43.251Z,99136.00
2022-10-22T15:02:19.243Z,99134.00
2022-10-22T15:04:46.213Z,99142.00
2022-10-22T15:07:19.239Z,99138.00
2022-10-22T15:09:46.219Z,99138.00
2022-10-22T15:12:19.239Z,99136.00
2022-10-22T15:14:47.192Z,99140.00
2022-10-22T15:17:21.254Z,99147.00
2022-10-22T15:19:54.272Z,99151.00
2022-10-22T15:22:21.174Z,99150.00
2022-10-22T15:24:54.232Z,99148.00
2022-10-22T15:27:21.142Z,99144.00
2022-10-22T15:29:54.301Z,99149.00
2022-10-22T15:32:21.281Z,99150.00
2022-10-22T15:34:55.248Z,99152.00
2022-10-22T15:37:22.355Z,99160.00
2022-10-22T15:39:56.230Z,99161.00
2022-10-22T15:42:23.204Z,99157.00
2022-10-22T15:44:58.922Z,99154.00
2022-10-22T15:47:35.277Z,99155.00
2022-10-22T15:50:08.269Z,99154.00
2022-10-22T15:52:35.257Z,99149.00
2022-10-22T15:55:02.243Z,99147.00
2022-10-22T15:57:43.502Z,99157.00
2022-10-22T16:00:18.287Z,99151.00
2022-10-22T16:02:45.175Z,99164.00
2022-10-22T16:05:18.234Z,99167.00
2022-10-22T16:07:51.263Z,99171.00
2022-10-22T16:10:24.249Z,99165.00
2022-10-22T16:12:57.315Z,99191.00
2022-10-22T16:15:24.198Z,99187.00
2022-10-22T16:17:58.309Z,99185.00
2022-10-22T16:20:25.287Z,99198.00
2022-10-22T16:22:52.160Z,99206.00
2022-10-22T16:25:25.349Z,99198.00
2022-10-22T16:27:52.370Z,99198.00
2022-10-22T16:30:26.275Z,99198.00
2022-10-22T16:32:53.253Z,99190.00
2022-10-22T16:35:26.312Z,99211.00
2022-10-22T16:37:53.309Z,99210.00
2022-10-22T16:40:26.342Z,99207.00
2022-10-22T16:43:00.392Z,99207.00
2022-10-22T16:45:34.304Z,99208.00
2022-10-22T16:48:07.305Z,99218.00
2022-10-22T16:50:40.292Z,99226.00
2022-10-22T16:53:07.183Z,99224.00
2022-10-22T16:55:45.298Z,99233.00
2022-10-22T16:58:12.268Z,99233.00
2022-10-22T17:00:39.369Z,99246.00
2022-10-22T17:03:13.319Z,99247.00
2022-10-22T17:05:40.231Z,99251.00
2022-10-22T17:08:13.335Z,99249.00
2022-10-22T17:10:47.372Z,99240.00
2022-10-22T17:13:14.406Z,99246.00
2022-10-22T17:15:48.378Z,99246.00
2022-10-22T17:18:15.380Z,99254.00
2022-10-22T17:20:49.358Z,99249.00
2022-10-22T17:23:23.309Z,99254.00
2022-10-22T17:25:50.343Z,99252.00
2022-10-22T17:28:23.325Z,99243.00
2022-10-22T17:30:50.302Z,99246.00
2022-10-22T17:33:23.419Z,99251.00
2022-10-22T17:35:50.459Z,99276.00
2022-10-22T17:38:24.366Z,99269.00
2022-10-22T17:40:51.577Z,99277.00
2022-10-22T17:43:18.648Z,99287.00
2022-10-22T17:45:52.367Z,99277.00
2022-10-22T17:48:19.354Z,99295.00
2022-10-22T17:50:56.902Z,99287.00
2022-10-22T17:53:25.349Z,99300.00
2022-10-22T17:56:09.336Z,99306.00
2022-10-22T17:58:36.596Z,99281.00
2022-10-22T18:01:10.421Z,99313.00
2022-10-22T18:03:37.520Z,99312.00
2022-10-22T18:06:07.164Z,99315.00
2022-10-22T18:08:40.462Z,99310.00
2022-10-22T18:11:09.258Z,99305.00
2022-10-22T18:13:43.374Z,99305.00
2022-10-22T18:16:10.353Z,99297.00
2022-10-22T18:18:37.350Z,99312.00
2022-10-22T18:21:11.354Z,99304.00
2022-10-22T18:23:44.371Z,99308.00
2022-10-22T18:26:11.443Z,99316.00
2022-10-22T18:28:45.526Z,99287.00
2022-10-22T18:31:23.544Z,99313.00
2022-10-22T18:33:57.387Z,99326.00
2022-10-22T18:36:33.353Z,99326.00
2022-10-22T18:39:08.367Z,99319.00
2022-10-22T18:41:35.393Z,99324.00
2022-10-22T18:44:11.412Z,99307.00
2022-10-22T18:46:38.342Z,99296.00
2022-10-22T18:49:12.431Z,99321.00
2022-10-22T18:51:39.361Z,99305.00
2022-10-22T18:54:22.739Z,99321.00
2022-10-22T18:56:50.565Z,99326.00
2022-10-22T18:59:27.365Z,99329.00
2022-10-22T19:02:02.364Z,99327.00
2022-10-22T19:04:29.351Z,99334.00
2022-10-22T19:07:03.434Z,99321.00
2022-10-22T19:09:37.416Z,99344.00
2022-10-22T19:12:04.575Z,99342.00
2022-10-22T19:14:38.381Z,99355.00
2022-10-22T19:17:11.395Z,99359.00
2022-10-22T19:19:38.431Z,99352.00
2022-10-22T19:22:11.422Z,99335.00
2022-10-22T19:24:38.475Z,99352.00
2022-10-22T19:27:12.457Z,99354.00
2022-10-22T19:29:39.363Z,99341.00
2022-10-22T19:32:12.417Z,99354.00
2022-10-22T19:34:39.428Z,99366.00
2022-10-22T19:37:14.427Z,99365.00
2022-10-22T19:39:41.636Z,99365.00
2022-10-22T19:42:15.461Z,99373.00
2022-10-22T19:44:48.422Z,99353.00
2022-10-22T19:47:15.397Z,99351.00
2022-10-22T19:49:49.460Z,99381.00
2022-10-22T19:52:23.526Z,99365.00
2022-10-22T19:54:50.503Z,99376.00
2022-10-22T19:57:24.470Z,99384.00
2022-10-22T19:59:51.403Z,99383.00
2022-10-22T20:02:25.459Z,99383.00
2022-10-22T20:04:52.517Z,99393.00
2022-10-22T20:07:26.485Z,99397.00
2022-10-22T20:09:53.499Z,99395.00
2022-10-22T20:12:27.492Z,99400.00
2022-10-22T20:14:54.558Z,99408.00
2022-10-22T20:17:21.587Z,99408.00
2022-10-22T20:19:55.483Z,99409.00
2022-10-22T20:22:22.506Z,99399.00
2022-10-22T20:24:56.509Z,99401.00
2022-10-22T20:27:23.987Z,99399.00
2022-10-22T20:29:57.500Z,99417.00
2022-10-22T20:32:24.386Z,99408.00
2022-10-22T20:34:57.521Z,99401.00
2022-10-22T20:37:24.512Z,99415.00
2022-10-22T20:39:58.431Z,99423.00
2022-10-22T20:42:25.427Z,99395.00
2022-10-22T20:44:58.448Z,99418.00
2022-10-22T20:47:34.176Z,99421.00
2022-10-22T20:50:18.471Z,99421.00
2022-10-22T20:52:45.449Z,99431.00
2022-10-22T20:55:13.564Z,99429.00
2022-10-22T20:57:47.477Z,99437.00
2022-10-22T21:00:15.009Z,99442.00
2022-10-22T21:02:48.541Z,99448.00
2022-10-22T21:05:15.608Z,99450.00
2022-10-22T21:07:49.465Z,99452.00
2022-10-22T21:10:16.482Z,99456.00
2022-10-22T21:12:49.504Z,99459.00
2022-10-22T21:15:16.627Z,99455.00
2022-10-22T21:17:50.465Z,99459.00
2022-10-22T21:20:19.786Z,99457.00
2022-10-22T21:22:55.513Z,99430.00
2022-10-22T21:25:22.457Z,99463.00
2022-10-22T21:27:49.470Z,99461.00
2022-10-22T21:30:23.565Z,99465.00
2022-10-22T21:32:50.613Z,99465.00
2022-10-22T21:35:24.610Z,99467.00
2022-10-22T21:37:51.638Z,99474.00
2022-10-22T21:40:25.572Z,99466.00
2022-10-22T21:42:52.657Z,99465.00
2022-10-22T21:45:26.495Z,99473.00
2022-10-22T21:47:53.671Z,99467.00
2022-10-22T21:50:20.716Z,99467.00
2022-10-22T21:52:54.535Z,99475.00
2022-10-22T21:55:28.393Z,99477.00
2022-10-22T21:58:01.610Z,99470.00
2022-10-22T22:00:28.567Z,99472.00
2022-10-22T22:03:02.552Z,99467.00
2022-10-22T22:05:29.722Z,99468.00
2022-10-22T22:07:56.797Z,99483.00
2022-10-22T22:10:30.592Z,99479.00
2022-10-22T22:12:57.620Z,99479.00
2022-10-22T22:15:31.531Z,99479.00
2022-10-22T22:17:58.519Z,99487.00
2022-10-22T22:20:31.563Z,99485.00
2022-10-22T22:22:58.573Z,99452.00
2022-10-22T22:25:32.550Z,99481.00
2022-10-22T22:27:59.568Z,99452.00
2022-10-22T22:30:26.593Z,99477.00
2022-10-22T22:33:00.602Z,99481.00
2022-10-22T22:35:27.717Z,99468.00
2022-10-22T22:38:01.625Z,99473.00
2022-10-22T22:40:30.277Z,99463.00
2022-10-22T22:43:06.535Z,99463.00
2022-10-22T22:45:33.517Z,99462.00
2022-10-22T22:48:06.522Z,99458.00
2022-10-22T22:50:33.553Z,99468.00
2022-10-22T22:53:07.580Z,99451.00
2022-10-22T22:55:41.524Z,99470.00
2022-10-22T22:58:08.689Z,99460.00
2022-10-22T23:00:42.569Z,99457.00
2022-10-22T23:03:09.533Z,99462.00
2022-10-22T23:05:43.519Z,99461.00
2022-10-22T23:08:10.838Z,99458.00
2022-10-22T23:10:44.620Z,99459.00
2022-10-22T23:13:11.648Z,99462.00
2022-10-22T23:15:46.544Z,99457.00
2022-10-22T23:18:19.565Z,99456.00
2022-10-22T23:20:53.553Z,99456.00
2022-10-22T23:23:26.608Z,99473.00
2022-10-22T23:25:55.315Z,99468.00
2022-10-22T23:28:30.604Z,99464.00
2022-10-22T23:30:57.770Z,99468.00
2022-10-22T23:33:31.645Z,99468.00
2022-10-22T23:36:01.601Z,99468.00
2022-10-22T23:38:35.635Z,99460.00
2022-10-22T23:41:02.990Z,99469.00
2022-10-22T23:43:37.589Z,99467.00
2022-10-22T23:46:05.744Z,99466.00
2022-10-22T23:48:39.589Z,99470.00
2022-10-22T23:51:18.611Z,99469.00
2022-10-22T23:53:52.573Z,99478.00
2022-10-22T23:56:19.662Z,99475.00
2022-10-22T23:58:56.574Z,99483.00
